createdAt,value
2019-03-28T00:01:10.019Z,70.00
2019-03-28T00:02:42.799Z,70.30
2019-03-28T00:04:15.472Z,69.90
2019-03-28T00:05:48.171Z,70.60
2019-03-28T00:07:24.106Z,70.20
2019-03-28T00:08:55.653Z,71.10
2019-03-28T00:10:28.476Z,70.50
2019-03-28T00:12:01.263Z,70.40
2019-03-28T00:13:33.962Z,70.30
2019-03-28T00:15:06.871Z,70.30
2019-03-28T00:16:39.694Z,70.30
2019-03-28T00:18:12.530Z,70.50
2019-03-28T00:19:45.203Z,70.20
2019-03-28T00:21:18.014Z,70.20
2019-03-28T00:22:59.925Z,70.40
2019-03-28T00:24:54.982Z,70.40
2019-03-28T00:26:30.539Z,70.40
2019-03-28T00:28:02.196Z,70.60
2019-03-28T00:29:35.027Z,70.60
2019-03-28T00:31:07.873Z,70.70
2019-03-28T00:32:40.519Z,71.00
2019-03-28T00:34:13.349Z,71.00
2019-03-28T00:35:46.113Z,70.90
2019-03-28T00:37:18.851Z,71.00
2019-03-28T00:38:51.684Z,71.90
2019-03-28T00:40:24.510Z,71.20
2019-03-28T00:41:57.269Z,71.50
2019-03-28T00:43:30.091Z,71.40
2019-03-28T00:45:03.049Z,71.30
2019-03-28T00:46:35.855Z,71.20
2019-03-28T00:48:08.679Z,71.30
2019-03-28T00:49:41.530Z,71.60
2019-03-28T00:51:14.295Z,71.80
2019-03-28T00:52:47.139Z,71.60
2019-03-28T00:54:19.901Z,71.60
2019-03-28T00:55:52.732Z,72.10
2019-03-28T00:57:25.389Z,71.50
2019-03-28T00:58:58.243Z,71.20
2019-03-28T01:00:31.134Z,70.90
2019-03-28T01:02:03.998Z,71.20
2019-03-28T01:03:36.803Z,71.50
2019-03-28T01:05:09.570Z,71.50
2019-03-28T01:06:42.347Z,71.50
2019-03-28T01:08:15.037Z,71.50
2019-03-28T01:09:47.965Z,71.60
2019-03-28T01:11:20.874Z,71.50
2019-03-28T01:12:53.938Z,71.20
2019-03-28T01:14:26.779Z,71.20
2019-03-28T01:15:59.476Z,71.30
2019-03-28T01:17:32.297Z,71.80
2019-03-28T01:19:04.960Z,71.30
2019-03-28T01:20:37.861Z,71.50
2019-03-28T01:22:10.705Z,71.80
2019-03-28T01:23:43.361Z,71.90
2019-03-28T01:25:16.161Z,72.00
2019-03-28T01:26:57.229Z,71.90
2019-03-28T01:28:23.575Z,72.10
2019-03-28T01:29:56.270Z,72.20
2019-03-28T01:31:29.041Z,72.30
2019-03-28T01:33:01.974Z,73.10
2019-03-28T01:34:36.521Z,72.30
2019-03-28T01:36:09.386Z,72.30
2019-03-28T01:37:42.181Z,72.30
2019-03-28T01:39:15.012Z,72.50
2019-03-28T01:40:47.950Z,72.30
2019-03-28T01:42:20.800Z,72.40
2019-03-28T01:43:53.493Z,72.50
2019-03-28T01:45:26.326Z,72.50
2019-03-28T01:46:59.230Z,72.30
2019-03-28T01:48:31.994Z,72.30
2019-03-28T01:50:05.054Z,72.20
2019-03-28T01:51:37.858Z,72.80
2019-03-28T01:53:10.643Z,72.60
2019-03-28T01:54:43.305Z,72.70
2019-03-28T01:56:16.017Z,72.80
2019-03-28T01:57:48.830Z,73.00
2019-03-28T01:59:21.648Z,72.80
2019-03-28T02:00:54.468Z,72.70
2019-03-28T02:02:27.255Z,72.50
2019-03-28T02:04:00.113Z,72.60
2019-03-28T02:05:32.982Z,72.80
2019-03-28T02:07:05.826Z,73.10
2019-03-28T02:08:38.620Z,73.10
2019-03-28T02:10:11.517Z,73.30
2019-03-28T02:11:44.312Z,73.20
2019-03-28T02:13:17.499Z,73.20
2019-03-28T02:14:50.364Z,73.10
2019-03-28T02:16:23.175Z,73.50
2019-03-28T02:17:55.970Z,73.60
2019-03-28T02:19:28.772Z,73.90
2019-03-28T02:21:01.614Z,73.90
2019-03-28T02:22:34.414Z,73.90
2019-03-28T02:24:07.092Z,74.20
2019-03-28T02:25:39.918Z,74.00
2019-03-28T02:27:23.369Z,74.00
2019-03-28T02:28:47.274Z,74.30
2019-03-28T02:30:31.129Z,74.10
2019-03-28T02:32:04.046Z,74.10
2019-03-28T02:33:36.825Z,74.00
2019-03-28T02:35:09.835Z,73.90
2019-03-28T02:36:42.509Z,74.20
2019-03-28T02:38:15.331Z,74.40
2019-03-28T02:39:48.093Z,74.40
2019-03-28T02:41:20.941Z,74.50
2019-03-28T02:42:53.846Z,74.40
2019-03-28T02:44:26.770Z,74.30
2019-03-28T02:45:59.535Z,74.40
2019-03-28T02:47:32.649Z,74.40
2019-03-28T02:49:05.478Z,75.20
2019-03-28T02:50:38.203Z,74.90
2019-03-28T02:52:10.914Z,74.70
2019-03-28T02:53:43.567Z,74.70
2019-03-28T02:55:16.361Z,75.00
2019-03-28T02:56:49.046Z,74.90
2019-03-28T02:58:21.850Z,74.80
2019-03-28T02:59:54.801Z,74.70
2019-03-28T03:01:30.305Z,74.60
2019-03-28T03:03:02.537Z,74.90
2019-03-28T03:04:35.305Z,74.60
2019-03-28T03:06:08.157Z,74.20
2019-03-28T03:07:41.756Z,74.40
2019-03-28T03:09:14.851Z,74.30
2019-03-28T03:10:47.718Z,74.60
2019-03-28T03:12:20.915Z,74.60
2019-03-28T03:13:53.703Z,74.80
2019-03-28T03:15:26.388Z,74.70
2019-03-28T03:16:59.281Z,74.90
2019-03-28T03:18:32.077Z,74.70
2019-03-28T03:20:06.072Z,74.90
2019-03-28T03:21:38.925Z,74.60
2019-03-28T03:23:11.750Z,74.60
2019-03-28T03:24:44.428Z,74.90
2019-03-28T03:26:17.129Z,75.00
2019-03-28T03:27:57.571Z,75.00
2019-03-28T03:29:24.562Z,74.90
2019-03-28T03:30:57.266Z,75.00
2019-03-28T03:32:30.129Z,75.20
2019-03-28T03:34:05.135Z,74.90
2019-03-28T03:35:37.747Z,75.10
2019-03-28T03:37:10.569Z,74.90
2019-03-28T03:38:43.377Z,74.90
2019-03-28T03:40:16.165Z,75.00
2019-03-28T03:41:48.831Z,74.90
2019-03-28T03:43:23.033Z,74.70
2019-03-28T03:44:56.119Z,74.70
2019-03-28T03:46:28.917Z,74.60
2019-03-28T03:48:01.714Z,74.80
2019-03-28T03:49:34.473Z,74.90
2019-03-28T03:51:07.256Z,75.30
2019-03-28T03:52:39.938Z,75.20
2019-03-28T03:54:12.799Z,75.20
2019-03-28T03:55:45.671Z,75.30
2019-03-28T03:57:18.434Z,75.30
2019-03-28T03:58:51.216Z,75.20
2019-03-28T04:00:31.961Z,75.10
2019-03-28T04:02:04.884Z,75.20
2019-03-28T04:03:37.522Z,75.50
2019-03-28T04:05:10.180Z,75.70
2019-03-28T04:06:42.825Z,75.60
2019-03-28T04:08:15.588Z,75.80
2019-03-28T04:09:48.406Z,76.00
2019-03-28T04:11:21.198Z,76.00
2019-03-28T04:12:53.979Z,75.90
2019-03-28T04:14:26.616Z,76.30
2019-03-28T04:15:59.489Z,76.30
2019-03-28T04:17:32.268Z,76.30
2019-03-28T04:19:05.822Z,76.50
2019-03-28T04:20:38.807Z,76.30
2019-03-28T04:22:11.609Z,76.50
2019-03-28T04:23:44.289Z,76.30
2019-03-28T04:25:16.976Z,75.90
2019-03-28T04:26:49.780Z,76.50
2019-03-28T04:28:31.830Z,76.30
2019-03-28T04:29:57.326Z,76.50
2019-03-28T04:31:30.163Z,76.40
2019-03-28T04:33:02.982Z,76.30
2019-03-28T04:34:35.796Z,76.40
2019-03-28T04:36:08.575Z,76.30
2019-03-28T04:37:41.410Z,76.40
2019-03-28T04:39:14.238Z,76.30
2019-03-28T04:40:46.926Z,76.80
2019-03-28T04:42:19.583Z,77.60
2019-03-28T04:43:55.653Z,76.90
2019-03-28T04:45:27.167Z,76.70
2019-03-28T04:46:59.969Z,76.90
2019-03-28T04:48:32.940Z,76.80
2019-03-28T04:50:06.807Z,77.30
2019-03-28T04:51:39.744Z,77.20
2019-03-28T04:53:12.453Z,77.10
2019-03-28T04:54:45.299Z,77.30
2019-03-28T04:56:18.101Z,78.10
2019-03-28T04:57:50.867Z,77.50
2019-03-28T04:59:23.672Z,77.30
2019-03-28T05:00:56.334Z,78.10
2019-03-28T05:02:29.037Z,78.10
2019-03-28T05:04:01.880Z,78.50
2019-03-28T05:05:34.714Z,77.80
2019-03-28T05:07:07.526Z,78.10
2019-03-28T05:08:40.289Z,77.90
2019-03-28T05:10:13.130Z,78.10
2019-03-28T05:11:45.819Z,77.70
2019-03-28T05:13:18.653Z,77.80
2019-03-28T05:14:51.539Z,77.80
2019-03-28T05:16:24.204Z,77.70
2019-03-28T05:17:56.984Z,77.80
2019-03-28T05:19:29.801Z,77.70
2019-03-28T05:21:02.598Z,77.70
2019-03-28T05:22:35.394Z,77.50
2019-03-28T05:24:08.274Z,77.50
2019-03-28T05:25:41.116Z,77.60
2019-03-28T05:27:16.507Z,77.60
2019-03-28T05:28:57.482Z,77.50
2019-03-28T05:30:23.241Z,77.80
2019-03-28T05:31:56.263Z,77.70
2019-03-28T05:34:21.527Z,77.80
2019-03-28T05:35:54.423Z,77.60
2019-03-28T05:37:27.214Z,78.10
2019-03-28T05:39:00.027Z,77.90
2019-03-28T05:40:33.043Z,77.60
2019-03-28T05:42:05.843Z,77.80
2019-03-28T05:43:38.612Z,78.20
2019-03-28T05:45:11.437Z,78.10
2019-03-28T05:46:44.229Z,77.90
2019-03-28T05:48:16.935Z,77.80
2019-03-28T05:49:49.741Z,77.80
2019-03-28T05:51:22.783Z,77.90
2019-03-28T05:52:58.961Z,77.60
2019-03-28T05:54:31.991Z,77.80
2019-03-28T05:56:04.862Z,77.70
2019-03-28T05:57:37.556Z,78.50
2019-03-28T05:59:11.444Z,77.40
2019-03-28T06:00:44.550Z,77.90
2019-03-28T06:02:17.383Z,77.60
2019-03-28T06:03:50.169Z,78.20
2019-03-28T06:05:23.013Z,77.80
2019-03-28T06:06:55.884Z,77.90
2019-03-28T06:08:28.601Z,77.90
2019-03-28T06:10:01.453Z,78.10
2019-03-28T06:11:34.227Z,77.90
2019-03-28T06:13:07.054Z,78.00
2019-03-28T06:14:39.934Z,78.50
2019-03-28T06:16:12.775Z,78.40
2019-03-28T06:17:45.625Z,78.40
2019-03-28T06:19:18.476Z,78.30
2019-03-28T06:20:51.323Z,78.10
2019-03-28T06:22:24.149Z,77.80
2019-03-28T06:23:56.928Z,78.00
2019-03-28T06:25:29.663Z,78.20
2019-03-28T06:27:02.522Z,78.20
2019-03-28T06:28:35.374Z,77.30
2019-03-28T06:30:08.943Z,77.70
2019-03-28T06:31:54.308Z,77.60
2019-03-28T06:33:16.448Z,78.00
2019-03-28T06:34:49.219Z,77.20
2019-03-28T06:36:22.067Z,77.50
2019-03-28T06:37:54.845Z,77.30
2019-03-28T06:39:27.682Z,77.70
2019-03-28T06:41:00.620Z,77.80
2019-03-28T06:42:33.304Z,77.70
2019-03-28T06:44:06.120Z,77.60
2019-03-28T06:45:38.955Z,78.00
2019-03-28T06:47:11.702Z,77.70
2019-03-28T06:48:44.397Z,77.80
2019-03-28T06:50:17.214Z,77.30
2019-03-28T06:51:50.013Z,77.90
2019-03-28T06:53:22.810Z,77.50
2019-03-28T06:54:56.412Z,77.70
2019-03-28T06:56:29.481Z,77.10
2019-03-28T06:58:02.303Z,77.60
2019-03-28T06:59:37.501Z,77.30
2019-03-28T07:01:09.859Z,77.40
2019-03-28T07:02:43.440Z,77.10
2019-03-28T07:04:16.499Z,77.10
2019-03-28T07:05:49.366Z,76.80
2019-03-28T07:07:22.244Z,76.50
2019-03-28T07:08:55.044Z,76.70
2019-03-28T07:10:27.846Z,76.50
2019-03-28T07:12:00.563Z,76.40
2019-03-28T07:13:33.199Z,76.40
2019-03-28T07:15:06.489Z,76.50
2019-03-28T07:16:39.253Z,76.60
2019-03-28T07:18:12.059Z,76.50
2019-03-28T07:19:44.822Z,76.30
2019-03-28T07:21:18.270Z,76.40
2019-03-28T07:22:51.952Z,76.20
2019-03-28T07:24:24.624Z,76.30
2019-03-28T07:25:57.377Z,76.40
2019-03-28T07:27:30.039Z,76.20
2019-03-28T07:29:02.907Z,76.30
2019-03-28T07:30:35.635Z,76.10
2019-03-28T07:32:08.299Z,76.30
2019-03-28T07:33:41.017Z,76.30
2019-03-28T07:35:14.154Z,76.40
2019-03-28T07:36:46.921Z,76.50
2019-03-28T07:38:19.580Z,76.40
2019-03-28T07:39:52.393Z,76.30
2019-03-28T07:41:25.222Z,76.20
2019-03-28T07:42:58.150Z,76.20
2019-03-28T07:44:31.011Z,76.00
2019-03-28T07:46:04.017Z,75.90
2019-03-28T07:47:36.842Z,75.90
2019-03-28T07:49:09.653Z,75.30
2019-03-28T07:50:42.755Z,75.20
2019-03-28T07:52:15.465Z,75.30
2019-03-28T07:53:48.304Z,74.90
2019-03-28T07:55:21.002Z,74.80
2019-03-28T07:56:53.680Z,74.70
2019-03-28T07:58:26.476Z,74.70
2019-03-28T08:00:04.440Z,74.60
2019-03-28T08:01:33.915Z,74.40
2019-03-28T08:03:06.691Z,74.40
2019-03-28T08:04:39.476Z,74.30
2019-03-28T08:06:12.887Z,74.10
2019-03-28T08:07:47.109Z,73.80
2019-03-28T08:09:20.216Z,73.60
2019-03-28T08:10:53.054Z,73.40
2019-03-28T08:12:25.865Z,73.30
2019-03-28T08:13:58.637Z,73.20
2019-03-28T08:15:31.498Z,73.10
2019-03-28T08:17:04.314Z,73.00
2019-03-28T08:18:37.133Z,72.80
2019-03-28T08:20:10.374Z,72.60
2019-03-28T08:21:43.231Z,72.20
2019-03-28T08:23:16.045Z,72.10
2019-03-28T08:24:48.895Z,71.90
2019-03-28T08:26:21.729Z,71.30
2019-03-28T08:27:57.557Z,71.60
2019-03-28T08:29:29.079Z,71.20
2019-03-28T08:31:01.957Z,70.90
2019-03-28T08:32:35.433Z,70.60
2019-03-28T08:34:08.083Z,70.60
2019-03-28T08:35:40.716Z,70.60
2019-03-28T08:37:13.409Z,70.50
2019-03-28T08:38:48.872Z,70.10
2019-03-28T08:40:34.133Z,69.70
2019-03-28T08:42:06.941Z,68.90
2019-03-28T08:43:39.771Z,68.60
2019-03-28T08:45:12.594Z,68.10
2019-03-28T08:46:45.258Z,67.10
2019-03-28T08:48:18.097Z,66.50
2019-03-28T08:49:50.841Z,66.40
2019-03-28T08:51:23.697Z,66.80
2019-03-28T08:52:58.347Z,66.70
2019-03-28T08:54:31.142Z,66.00
2019-03-28T08:56:04.133Z,66.80
2019-03-28T08:57:37.031Z,66.70
2019-03-28T08:59:09.819Z,66.50
2019-03-28T09:00:51.460Z,67.00
2019-03-28T09:02:17.218Z,66.50
2019-03-28T09:03:49.960Z,66.20
2019-03-28T09:05:22.775Z,65.40
2019-03-28T09:06:55.560Z,65.10
2019-03-28T09:08:28.352Z,64.50
2019-03-28T09:10:01.116Z,63.90
2019-03-28T09:11:34.035Z,63.90
2019-03-28T09:13:06.851Z,63.70
2019-03-28T09:14:39.537Z,63.70
2019-03-28T09:16:12.279Z,63.40
2019-03-28T09:17:45.116Z,63.10
2019-03-28T09:19:17.793Z,62.70
2019-03-28T09:20:50.612Z,62.40
2019-03-28T09:22:23.421Z,63.50
2019-03-28T09:23:56.185Z,62.00
2019-03-28T09:25:28.962Z,61.50
2019-03-28T09:27:01.794Z,60.50
2019-03-28T09:28:34.674Z,60.20
2019-03-28T09:30:07.835Z,60.70
2019-03-28T09:31:40.707Z,60.60
2019-03-28T09:33:13.477Z,60.10
2019-03-28T09:34:46.345Z,60.20
2019-03-28T09:36:19.101Z,60.40
2019-03-28T09:37:51.922Z,60.10
2019-03-28T09:39:25.071Z,60.10
2019-03-28T09:40:58.039Z,59.60
2019-03-28T09:42:30.715Z,59.80
2019-03-28T09:44:03.414Z,59.90
2019-03-28T09:45:36.177Z,59.90
2019-03-28T09:47:08.960Z,59.40
2019-03-28T09:48:41.727Z,59.50
2019-03-28T09:50:14.527Z,59.80
2019-03-28T09:51:47.205Z,59.40
2019-03-28T09:53:19.967Z,59.20
2019-03-28T09:54:52.729Z,58.60
2019-03-28T09:56:25.545Z,58.10
2019-03-28T09:57:58.397Z,57.70
2019-03-28T09:59:31.233Z,57.50
2019-03-28T10:01:04.316Z,56.30
2019-03-28T10:02:37.183Z,56.00
2019-03-28T10:04:10.109Z,56.10
2019-03-28T10:05:42.876Z,55.80
2019-03-28T10:07:15.773Z,56.00
2019-03-28T10:08:48.618Z,54.40
2019-03-28T10:10:21.506Z,56.20
2019-03-28T10:11:54.479Z,55.70
2019-03-28T10:13:27.201Z,55.60
2019-03-28T10:15:00.012Z,55.70
2019-03-28T10:16:32.820Z,54.80
2019-03-28T10:18:05.671Z,55.10
2019-03-28T10:19:38.437Z,54.50
2019-03-28T10:21:11.128Z,54.20
2019-03-28T10:22:43.929Z,54.10
2019-03-28T10:24:16.789Z,54.20
2019-03-28T10:25:49.638Z,54.00
2019-03-28T10:27:22.454Z,54.40
2019-03-28T10:28:55.324Z,53.10
2019-03-28T10:30:37.731Z,53.60
2019-03-28T10:32:10.601Z,53.70
2019-03-28T10:33:43.586Z,53.60
2019-03-28T10:35:25.947Z,53.70
2019-03-28T10:36:58.757Z,52.90
2019-03-28T10:38:31.635Z,52.80
2019-03-28T10:40:05.094Z,53.20
2019-03-28T10:41:39.899Z,53.70
2019-03-28T10:43:12.676Z,53.00
2019-03-28T10:44:45.460Z,53.90
2019-03-28T10:46:18.280Z,52.90
2019-03-28T10:47:51.078Z,53.60
2019-03-28T10:49:23.868Z,53.60
2019-03-28T10:50:56.730Z,52.70
2019-03-28T10:52:29.389Z,52.70
2019-03-28T10:54:02.276Z,53.20
2019-03-28T10:55:35.078Z,53.40
2019-03-28T10:57:13.711Z,53.50
2019-03-28T10:58:42.631Z,53.30
2019-03-28T11:00:23.909Z,53.40
2019-03-28T11:01:51.134Z,53.10
2019-03-28T11:03:23.996Z,53.10
2019-03-28T11:04:56.879Z,52.80
2019-03-28T11:06:29.795Z,52.10
2019-03-28T11:08:02.678Z,51.40
2019-03-28T11:09:35.545Z,51.90
2019-03-28T11:11:08.227Z,52.20
2019-03-28T11:12:41.011Z,52.50
2019-03-28T11:14:13.787Z,52.40
2019-03-28T11:15:46.622Z,52.30
2019-03-28T11:17:19.427Z,52.10
2019-03-28T11:18:52.262Z,51.20
2019-03-28T11:20:25.117Z,50.40
2019-03-28T11:21:57.976Z,50.70
2019-03-28T11:23:30.781Z,50.60
2019-03-28T11:25:03.813Z,50.90
2019-03-28T11:26:36.622Z,48.80
2019-03-28T11:28:09.487Z,48.80
2019-03-28T11:29:42.336Z,49.90
2019-03-28T11:31:15.157Z,50.30
2019-03-28T11:32:48.015Z,50.60
2019-03-28T11:34:20.679Z,50.20
2019-03-28T11:35:53.368Z,50.00
2019-03-28T11:37:26.842Z,50.60
2019-03-28T11:39:02.869Z,50.00
2019-03-28T11:40:35.618Z,49.30
2019-03-28T11:42:08.351Z,48.80
2019-03-28T11:43:41.278Z,49.30
2019-03-28T11:45:13.994Z,49.20
2019-03-28T11:46:46.781Z,49.00
2019-03-28T11:48:19.606Z,48.90
2019-03-28T11:49:52.301Z,48.60
2019-03-28T11:51:24.987Z,48.90
2019-03-28T11:52:57.821Z,48.40
2019-03-28T11:54:30.651Z,48.60
2019-03-28T11:56:03.502Z,48.80
2019-03-28T11:57:36.383Z,48.20
2019-03-28T11:59:09.327Z,47.70
2019-03-28T12:00:42.235Z,47.40
2019-03-28T12:02:20.371Z,47.50
2019-03-28T12:03:49.689Z,47.80
2019-03-28T12:05:22.464Z,47.60
2019-03-28T12:06:55.269Z,47.60
2019-03-28T12:08:28.068Z,48.10
2019-03-28T12:10:00.768Z,48.50
2019-03-28T12:11:33.429Z,48.20
2019-03-28T12:13:06.110Z,47.90
2019-03-28T12:14:38.951Z,47.10
2019-03-28T12:16:11.761Z,47.00
2019-03-28T12:17:44.611Z,47.70
2019-03-28T12:19:17.952Z,47.60
2019-03-28T12:20:50.995Z,47.70
2019-03-28T12:22:23.844Z,47.90
2019-03-28T12:23:56.765Z,47.60
2019-03-28T12:25:29.683Z,47.50
2019-03-28T12:27:02.597Z,47.70
2019-03-28T12:28:35.398Z,47.50
2019-03-28T12:30:09.933Z,48.10
2019-03-28T12:31:42.751Z,48.50
2019-03-28T12:33:15.521Z,48.90
2019-03-28T12:34:48.311Z,48.90
2019-03-28T12:36:21.099Z,49.40
2019-03-28T12:37:53.857Z,48.90
2019-03-28T12:39:26.678Z,49.20
2019-03-28T12:40:59.400Z,49.10
2019-03-28T12:42:32.261Z,49.40
2019-03-28T12:44:04.975Z,49.80
2019-03-28T12:45:37.773Z,50.90
2019-03-28T12:47:10.581Z,49.00
2019-03-28T12:48:43.449Z,49.90
2019-03-28T12:50:16.193Z,48.90
2019-03-28T12:51:48.954Z,49.00
2019-03-28T12:53:21.799Z,48.90
2019-03-28T12:54:54.765Z,48.50
2019-03-28T12:56:27.671Z,49.40
2019-03-28T12:58:00.470Z,49.70
2019-03-28T12:59:33.789Z,49.20
2019-03-28T13:01:06.750Z,49.70
2019-03-28T13:02:39.600Z,49.20
2019-03-28T13:04:12.573Z,49.80
2019-03-28T13:05:45.451Z,49.60
2019-03-28T13:07:18.157Z,50.50
2019-03-28T13:08:50.978Z,51.60
2019-03-28T13:10:23.815Z,51.50
2019-03-28T13:11:56.656Z,51.60
2019-03-28T13:13:29.496Z,51.40
2019-03-28T13:15:02.791Z,51.10
2019-03-28T13:16:35.637Z,50.80
2019-03-28T13:18:08.472Z,51.10
2019-03-28T13:19:41.326Z,51.00
2019-03-28T13:21:14.358Z,50.90
2019-03-28T13:22:47.385Z,51.20
2019-03-28T13:24:20.073Z,50.90
2019-03-28T13:25:52.913Z,50.70
2019-03-28T13:27:25.766Z,51.60
2019-03-28T13:28:58.576Z,51.80
2019-03-28T13:30:31.504Z,51.90
2019-03-28T13:32:04.374Z,51.70
2019-03-28T13:33:37.034Z,51.80
2019-03-28T13:35:09.767Z,52.00
2019-03-28T13:36:42.639Z,51.60
2019-03-28T13:38:15.494Z,51.80
2019-03-28T13:39:48.294Z,51.60
2019-03-28T13:41:21.104Z,52.00
2019-03-28T13:42:53.860Z,52.50
2019-03-28T13:44:26.676Z,51.90
2019-03-28T13:45:59.500Z,51.10
2019-03-28T13:47:32.210Z,51.40
2019-03-28T13:49:05.032Z,52.00
2019-03-28T13:50:37.859Z,51.80
2019-03-28T13:52:10.681Z,52.30
2019-03-28T13:53:43.378Z,52.00
2019-03-28T13:55:16.190Z,51.80
2019-03-28T13:56:49.005Z,51.90
2019-03-28T13:58:21.827Z,51.90
2019-03-28T13:59:54.658Z,51.80
2019-03-28T14:01:27.471Z,50.90
2019-03-28T14:03:00.321Z,51.10
2019-03-28T14:04:33.133Z,51.80
2019-03-28T14:06:05.897Z,51.40
2019-03-28T14:07:38.734Z,51.20
2019-03-28T14:09:11.459Z,51.60
2019-03-28T14:10:44.269Z,52.00
2019-03-28T14:12:17.056Z,51.70
2019-03-28T14:13:49.863Z,51.80
2019-03-28T14:15:22.665Z,52.00
2019-03-28T14:16:55.466Z,52.00
2019-03-28T14:18:28.166Z,52.00
2019-03-28T14:20:00.972Z,52.20
2019-03-28T14:21:33.655Z,51.80
2019-03-28T14:23:06.366Z,51.80
2019-03-28T14:24:39.250Z,52.10
2019-03-28T14:26:11.921Z,51.40
2019-03-28T14:27:44.717Z,51.20
2019-03-28T14:29:17.521Z,50.70
2019-03-28T14:30:50.384Z,51.40
2019-03-28T14:32:23.230Z,51.80
2019-03-28T14:33:55.937Z,51.80
2019-03-28T14:35:28.699Z,51.60
2019-03-28T14:37:01.498Z,51.50
2019-03-28T14:38:37.248Z,52.10
2019-03-28T14:40:09.095Z,52.10
2019-03-28T14:41:41.948Z,52.40
2019-03-28T14:43:14.795Z,52.20
2019-03-28T14:44:47.649Z,52.20
2019-03-28T14:46:20.501Z,52.70
2019-03-28T14:47:53.329Z,52.50
2019-03-28T14:49:26.142Z,52.20
2019-03-28T14:50:58.960Z,52.40
2019-03-28T14:52:31.835Z,52.20
2019-03-28T14:54:04.641Z,52.20
2019-03-28T14:55:37.456Z,52.20
2019-03-28T14:57:10.878Z,52.30
2019-03-28T14:58:45.861Z,52.40
2019-03-28T15:00:49.165Z,52.50
2019-03-28T15:02:22.086Z,52.50
2019-03-28T15:03:54.759Z,52.70
2019-03-28T15:05:27.616Z,52.70
2019-03-28T15:07:00.449Z,52.70
2019-03-28T15:08:33.274Z,52.80
2019-03-28T15:10:06.044Z,52.80
2019-03-28T15:11:38.849Z,53.00
2019-03-28T15:13:11.591Z,53.10
2019-03-28T15:14:44.366Z,52.90
2019-03-28T15:16:17.044Z,52.90
2019-03-28T15:17:49.906Z,52.70
2019-03-28T15:19:22.680Z,52.80
2019-03-28T15:20:55.380Z,52.80
2019-03-28T15:22:28.193Z,52.70
2019-03-28T15:24:01.053Z,52.50
2019-03-28T15:25:33.909Z,52.40
2019-03-28T15:27:06.606Z,52.70
2019-03-28T15:28:39.356Z,52.80
2019-03-28T15:30:12.303Z,52.80
2019-03-28T15:31:45.112Z,53.20
2019-03-28T15:33:17.800Z,53.00
2019-03-28T15:34:50.671Z,52.70
2019-03-28T15:36:23.620Z,53.00
2019-03-28T15:37:56.470Z,53.20
2019-03-28T15:39:29.300Z,53.00
2019-03-28T15:41:02.040Z,52.90
2019-03-28T15:42:34.808Z,53.00
2019-03-28T15:44:07.677Z,53.20
2019-03-28T15:45:40.381Z,53.30
2019-03-28T15:47:13.299Z,53.10
2019-03-28T15:48:46.102Z,53.10
2019-03-28T15:50:19.686Z,53.00
2019-03-28T15:51:52.678Z,53.10
2019-03-28T15:53:25.530Z,52.80
2019-03-28T15:54:58.358Z,53.00
2019-03-28T15:56:31.152Z,52.60
2019-03-28T15:58:03.861Z,53.10
2019-03-28T15:59:36.681Z,53.20
2019-03-28T16:01:09.446Z,53.30
2019-03-28T16:02:42.302Z,53.80
2019-03-28T16:04:14.999Z,53.60
2019-03-28T16:05:57.593Z,53.40
2019-03-28T16:07:22.494Z,53.40
2019-03-28T16:08:55.141Z,53.70
2019-03-28T16:10:27.857Z,53.60
2019-03-28T16:12:02.827Z,54.40
2019-03-28T16:13:37.600Z,53.60
2019-03-28T16:15:10.365Z,53.80
2019-03-28T16:16:43.240Z,53.80
2019-03-28T16:18:16.054Z,53.70
2019-03-28T16:19:48.871Z,53.90
2019-03-28T16:21:21.544Z,53.60
2019-03-28T16:22:54.356Z,53.90
2019-03-28T16:24:27.077Z,53.80
2019-03-28T16:25:59.822Z,53.90
2019-03-28T16:27:32.680Z,53.90
2019-03-28T16:29:05.545Z,54.00
2019-03-28T16:30:39.162Z,54.20
2019-03-28T16:32:11.997Z,54.10
2019-03-28T16:33:44.963Z,54.40
2019-03-28T16:35:20.919Z,54.40
2019-03-28T16:36:52.504Z,54.50
2019-03-28T16:38:25.299Z,54.40
2019-03-28T16:39:58.126Z,54.20
2019-03-28T16:41:30.896Z,54.40
2019-03-28T16:43:03.741Z,54.60
2019-03-28T16:44:36.448Z,54.60
2019-03-28T16:46:09.318Z,55.00
2019-03-28T16:47:42.238Z,54.90
2019-03-28T16:49:15.049Z,55.00
2019-03-28T16:50:47.764Z,54.90
2019-03-28T16:52:20.609Z,55.10
2019-03-28T16:53:53.387Z,55.10
2019-03-28T16:55:27.563Z,55.20
2019-03-28T16:57:00.934Z,55.10
2019-03-28T16:58:33.791Z,55.10
2019-03-28T17:00:09.944Z,55.20
2019-03-28T17:01:44.248Z,55.00
2019-03-28T17:03:17.089Z,55.10
2019-03-28T17:04:49.966Z,55.20
2019-03-28T17:06:23.497Z,55.30
2019-03-28T17:07:56.347Z,55.50
2019-03-28T17:09:29.826Z,55.60
2019-03-28T17:11:02.651Z,55.60
2019-03-28T17:12:35.475Z,55.60
2019-03-28T17:14:08.340Z,55.50
2019-03-28T17:15:41.284Z,55.80
2019-03-28T17:17:14.448Z,55.50
2019-03-28T17:18:47.291Z,55.50
2019-03-28T17:20:20.085Z,55.70
2019-03-28T17:21:52.946Z,55.60
2019-03-28T17:23:25.777Z,55.30
2019-03-28T17:24:58.609Z,55.40
2019-03-28T17:26:31.449Z,55.40
2019-03-28T17:28:04.250Z,55.60
2019-03-28T17:29:37.084Z,55.60
2019-03-28T17:31:09.871Z,55.60
2019-03-28T17:32:42.658Z,55.70
2019-03-28T17:34:15.585Z,55.50
2019-03-28T17:35:48.540Z,55.60
2019-03-28T17:37:21.379Z,56.50
2019-03-28T17:38:54.022Z,55.90
2019-03-28T17:40:26.971Z,56.20
2019-03-28T17:41:59.756Z,56.10
2019-03-28T17:43:32.542Z,56.20
2019-03-28T17:45:05.992Z,56.30
2019-03-28T17:46:38.866Z,56.40
2019-03-28T17:48:11.545Z,56.50
2019-03-28T17:49:44.344Z,56.60
2019-03-28T17:51:17.144Z,56.70
2019-03-28T17:52:49.851Z,56.80
2019-03-28T17:54:22.628Z,56.90
2019-03-28T17:55:55.601Z,57.00
2019-03-28T17:57:28.481Z,57.10
2019-03-28T17:59:01.248Z,57.10
2019-03-28T18:00:34.066Z,57.40
2019-03-28T18:02:06.821Z,57.20
2019-03-28T18:03:39.629Z,57.30
2019-03-28T18:05:15.725Z,57.30
2019-03-28T18:06:47.411Z,57.60
2019-03-28T18:08:20.288Z,58.20
2019-03-28T18:09:53.156Z,57.50
2019-03-28T18:11:26.011Z,57.50
2019-03-28T18:12:58.868Z,57.50
2019-03-28T18:14:31.715Z,57.70
2019-03-28T18:16:04.584Z,57.90
2019-03-28T18:17:37.451Z,57.80
2019-03-28T18:19:10.384Z,57.90
2019-03-28T18:20:43.056Z,58.00
2019-03-28T18:22:15.885Z,58.20
2019-03-28T18:23:49.696Z,58.20
2019-03-28T18:25:22.669Z,58.40
2019-03-28T18:26:55.499Z,58.50
2019-03-28T18:28:31.367Z,58.50
2019-03-28T18:30:05.309Z,58.60
2019-03-28T18:31:49.925Z,58.70
2019-03-28T18:33:12.345Z,58.80
2019-03-28T18:34:45.254Z,58.80
2019-03-28T18:36:17.966Z,58.90
2019-03-28T18:37:50.638Z,59.00
2019-03-28T18:39:23.334Z,59.20
2019-03-28T18:40:56.104Z,59.20
2019-03-28T18:42:28.820Z,59.40
2019-03-28T18:44:01.611Z,59.50
2019-03-28T18:45:34.405Z,59.40
2019-03-28T18:47:07.240Z,59.50
2019-03-28T18:48:40.018Z,59.60
2019-03-28T18:50:13.517Z,59.60
2019-03-28T18:51:46.361Z,59.60
2019-03-28T18:53:19.151Z,59.60
2019-03-28T18:54:51.970Z,59.70
2019-03-28T18:56:24.651Z,59.90
2019-03-28T18:57:57.372Z,59.80
2019-03-28T18:59:30.214Z,59.90
2019-03-28T19:01:03.104Z,59.90
2019-03-28T19:02:36.035Z,60.10
2019-03-28T19:04:08.872Z,60.20
2019-03-28T19:05:41.730Z,60.40
2019-03-28T19:07:14.738Z,60.50
2019-03-28T19:08:47.593Z,60.70
2019-03-28T19:10:20.279Z,60.60
2019-03-28T19:11:53.193Z,60.80
2019-03-28T19:13:26.861Z,61.30
2019-03-28T19:14:59.747Z,61.20
2019-03-28T19:16:32.538Z,61.30
2019-03-28T19:18:05.371Z,61.50
2019-03-28T19:19:39.600Z,61.50
2019-03-28T19:21:12.757Z,61.80
2019-03-28T19:22:45.416Z,61.90
2019-03-28T19:24:18.286Z,61.90
2019-03-28T19:25:51.189Z,62.40
2019-03-28T19:27:23.965Z,62.10
2019-03-28T19:28:56.765Z,62.10
2019-03-28T19:30:31.385Z,62.10
2019-03-28T19:32:04.046Z,62.50
2019-03-28T19:33:38.359Z,62.40
2019-03-28T19:35:11.431Z,62.50
2019-03-28T19:36:45.135Z,63.40
2019-03-28T19:38:18.109Z,62.60
2019-03-28T19:39:50.999Z,62.60
2019-03-28T19:41:24.616Z,62.60
2019-03-28T19:42:57.746Z,62.40
2019-03-28T19:44:31.348Z,62.30
2019-03-28T19:46:04.186Z,62.20
2019-03-28T19:47:37.843Z,62.30
2019-03-28T19:49:11.021Z,62.10
2019-03-28T19:50:43.830Z,62.20
2019-03-28T19:52:16.513Z,62.40
2019-03-28T19:53:49.337Z,62.30
2019-03-28T19:55:23.484Z,62.50
2019-03-28T19:56:57.448Z,62.50
2019-03-28T19:58:31.021Z,62.50
2019-03-28T20:00:05.216Z,62.50